Orbital elements of ICEYE-X7
| Launched | 27 September 2020 |
| Flight ended | – |
| Launch site | Plesetsk Missile and Space Complex, Russia |
| Owner | |
| NORAD ID | 46496 |
| Date fetched |
Epoch osculation |
Inc. [°] |
Ecc. | RA asc node [hr] |
Arg Peri. [°] |
Mean anom [°] |
Mean motion [rev/day] |
Abs. mag |
| Date fetched |
Epoch osculation |
Inc. [°] |
Ecc. | RA asc node [hr] |
Arg Peri. [°] |
Mean anom [°] |
Mean motion [rev/day] |
Abs. mag |
| 2026 May 01 17:56 | 2026 May 01 12:57:57 | 97.7475 | 0.00095 | 5.7332 | 123.8354 | 236.3795 | 15.30488 | – |
| 2026 Apr 30 17:56 | 2026 Apr 30 07:09:07 | 97.7471 | 0.00094 | 5.6468 | 127.2784 | 236.3795 | 15.30488 | – |
| 2026 Apr 29 17:57 | 2026 Apr 29 12:19:19 | 97.7469 | 0.00094 | 5.5922 | 129.5140 | 236.3795 | 15.30488 | – |
| 2026 Apr 28 17:56 | 2026 Apr 28 12:47:02 | 97.7467 | 0.00093 | 5.5240 | 132.3039 | 236.3795 | 15.30488 | – |
| 2026 Apr 27 17:58 | 2026 Apr 27 13:14:44 | 97.7465 | 0.00092 | 5.4558 | 135.0280 | 236.3795 | 15.30488 | – |
| 2026 Apr 26 17:58 | 2026 Apr 26 12:08:15 | 97.7465 | 0.00091 | 5.3830 | 138.1347 | 236.3795 | 15.30488 | – |
| 2026 Apr 25 17:58 | 2026 Apr 25 12:35:54 | 97.7465 | 0.00090 | 5.3148 | 141.1008 | 236.3795 | 15.30488 | – |
| 2026 Apr 24 17:59 | 2026 Apr 24 13:03:32 | 97.7467 | 0.00089 | 5.2466 | 143.8957 | 236.3795 | 15.30488 | – |
| 2026 Apr 23 17:57 | 2026 Apr 23 07:14:30 | 97.7469 | 0.00088 | 5.1603 | 147.7778 | 236.3795 | 15.30488 | – |
| 2026 Apr 22 17:57 | 2026 Apr 22 07:42:05 | 97.7471 | 0.00087 | 5.0921 | 150.8029 | 236.3795 | 15.30488 | – |
| 2026 Apr 21 17:57 | 2026 Apr 21 12:52:09 | 97.7472 | 0.00086 | 5.0375 | 153.2116 | 236.3795 | 15.30488 | – |
| 2026 Apr 20 17:57 | 2026 Apr 20 13:19:42 | 97.7472 | 0.00085 | 4.9694 | 156.3403 | 236.3795 | 15.30488 | – |
| 2026 Apr 19 17:58 | 2026 Apr 19 12:13:05 | 97.7470 | 0.00084 | 4.8966 | 159.6964 | 236.3795 | 15.30488 | – |
| 2026 Apr 18 17:56 | 2026 Apr 18 06:23:56 | 97.7466 | 0.00082 | 4.8102 | 163.7452 | 236.3795 | 15.30488 | – |
| 2026 Apr 16 17:57 | 2026 Apr 16 07:18:56 | 97.7458 | 0.00080 | 4.6738 | 170.2923 | 236.3795 | 15.30488 | – |
| 2026 Apr 14 17:57 | 2026 Apr 14 12:56:23 | 97.7453 | 0.00077 | 4.5511 | 176.4584 | 236.3795 | 15.30488 | – |
| 2026 Apr 13 17:57 | 2026 Apr 13 07:07:10 | 97.7449 | 0.00076 | 4.4648 | 180.8010 | 236.3795 | 15.30488 | – |
| 2026 Apr 12 17:57 | 2026 Apr 12 12:17:07 | 97.7450 | 0.00075 | 4.4102 | 183.4504 | 236.3795 | 15.30488 | – |
| 2026 Apr 11 17:57 | 2026 Apr 11 12:44:33 | 97.7450 | 0.00074 | 4.3421 | 187.0409 | 236.3795 | 15.30488 | – |
| 2026 Apr 10 17:58 | 2026 Apr 10 06:55:16 | 97.7452 | 0.00072 | 4.2557 | 191.4996 | 236.3795 | 15.30488 | – |
| 2026 Apr 09 18:01 | 2026 Apr 09 07:22:40 | 97.7453 | 0.00071 | 4.1876 | 195.3204 | 236.3795 | 15.30488 | – |
| 2026 Apr 08 17:57 | 2026 Apr 08 07:50:02 | 97.7454 | 0.00070 | 4.1194 | 199.1707 | 236.3795 | 15.30488 | – |
| 2026 Apr 07 17:57 | 2026 Apr 07 06:43:12 | 97.7455 | 0.00069 | 4.0467 | 203.1497 | 236.3795 | 15.30488 | – |
| 2026 Apr 06 17:57 | 2026 Apr 06 07:10:32 | 97.7454 | 0.00068 | 3.9785 | 207.2134 | 236.3795 | 15.30488 | – |
| 2026 Apr 05 17:56 | 2026 Apr 05 12:20:22 | 97.7454 | 0.00066 | 3.9240 | 210.7028 | 236.3795 | 15.30488 | – |
| 2026 Apr 04 17:57 | 2026 Apr 04 06:30:55 | 97.7451 | 0.00066 | 3.8377 | 215.3901 | 236.3795 | 15.30488 | – |